sensor_id;sensor_type;location;lat;lon;timestamp;pressure;altitude;pressure_sealevel;temperature;humidity
30949;BME280;17637;51.984;21.208;2024-01-15T00:00:14;98149.28;;;0.02;100.00
30949;BME280;17637;51.984;21.208;2024-01-15T00:02:47;98158.09;;;0.11;100.00
30949;BME280;17637;51.984;21.208;2024-01-15T00:05:19;98114.44;;;0.01;100.00
30949;BME280;17637;51.984;21.208;2024-01-15T00:07:51;98101.06;;;-0.03;100.00
30949;BME280;17637;51.984;21.208;2024-01-15T00:10:23;98122.09;;;0.01;100.00
30949;BME280;17637;51.984;21.208;2024-01-15T00:12:55;98151.19;;;0.13;100.00
30949;BME280;17637;51.984;21.208;2024-01-15T00:15:27;98125.38;;;-0.10;100.00
30949;BME280;17637;51.984;21.208;2024-01-15T00:18:00;98132.56;;;0.11;100.00
30949;BME280;17637;51.984;21.208;2024-01-15T00:20:32;98141.28;;;0.21;100.00
30949;BME280;17637;51.984;21.208;2024-01-15T00:23:04;98102.38;;;-0.10;100.00
30949;BME280;17637;51.984;21.208;2024-01-15T00:25:36;98107.88;;;-0.16;100.00
30949;BME280;17637;51.984;21.208;2024-01-15T00:28:08;98057.41;;;-0.25;100.00
30949;BME280;17637;51.984;21.208;2024-01-15T00:30:40;98098.75;;;0.07;100.00
30949;BME280;17637;51.984;21.208;2024-01-15T00:33:12;98102.53;;;0.14;100.00
30949;BME280;17637;51.984;21.208;2024-01-15T00:35:46;98036.84;;;-0.37;100.00
30949;BME280;17637;51.984;21.208;2024-01-15T00:38:18;98100.00;;;0.14;100.00
30949;BME280;17637;51.984;21.208;2024-01-15T00:40:50;98099.72;;;-0.08;100.00
30949;BME280;17637;51.984;21.208;2024-01-15T00:43:23;98087.91;;;0.04;100.00
30949;BME280;17637;51.984;21.208;2024-01-15T00:45:54;98094.25;;;0.11;100.00
30949;BME280;17637;51.984;21.208;2024-01-15T00:48:26;98070.75;;;0.06;100.00
30949;BME280;17637;51.984;21.208;2024-01-15T00:50:59;98073.69;;;-0.01;100.00
30949;BME280;17637;51.984;21.208;2024-01-15T00:53:31;98092.44;;;0.26;100.00
30949;BME280;17637;51.984;21.208;2024-01-15T00:56:03;98079.72;;;0.11;100.00
30949;BME280;17637;51.984;21.208;2024-01-15T00:58:35;98044.59;;;0.02;100.00
30949;BME280;17637;51.984;21.208;2024-01-15T01:01:07;98055.31;;;0.07;100.00
30949;BME280;17637;51.984;21.208;2024-01-15T01:03:39;98017.09;;;-0.20;100.00
30949;BME280;17637;51.984;21.208;2024-01-15T01:06:11;98050.31;;;0.06;100.00
30949;BME280;17637;51.984;21.208;2024-01-15T01:08:43;98063.59;;;0.11;100.00
30949;BME280;17637;51.984;21.208;2024-01-15T01:11:15;98033.75;;;0.11;100.00
30949;BME280;17637;51.984;21.208;2024-01-15T01:13:47;98037.94;;;0.12;100.00
30949;BME280;17637;51.984;21.208;2024-01-15T01:16:19;97988.59;;;-0.14;100.00
30949;BME280;17637;51.984;21.208;2024-01-15T01:18:51;98014.34;;;0.09;100.00
30949;BME280;17637;51.984;21.208;2024-01-15T01:21:24;98037.34;;;0.22;100.00
30949;BME280;17637;51.984;21.208;2024-01-15T01:23:56;98040.50;;;0.25;100.00
30949;BME280;17637;51.984;21.208;2024-01-15T01:26:28;98021.50;;;0.16;100.00
30949;BME280;17637;51.984;21.208;2024-01-15T01:29:00;98021.81;;;0.12;100.00
30949;BME280;17637;51.984;21.208;2024-01-15T01:31:32;97996.84;;;-0.10;100.00
30949;BME280;17637;51.984;21.208;2024-01-15T01:34:04;98001.00;;;0.05;100.00
30949;BME280;17637;51.984;21.208;2024-01-15T01:36:36;97992.69;;;-0.24;100.00
30949;BME280;17637;51.984;21.208;2024-01-15T01:39:08;98024.56;;;0.09;100.00
30949;BME280;17637;51.984;21.208;2024-01-15T01:41:40;97977.44;;;-0.26;100.00
30949;BME280;17637;51.984;21.208;2024-01-15T01:44:12;97980.81;;;-0.25;100.00
30949;BME280;17637;51.984;21.208;2024-01-15T01:46:44;98021.81;;;-0.01;100.00
30949;BME280;17637;51.984;21.208;2024-01-15T01:49:17;97983.91;;;-0.07;100.00
30949;BME280;17637;51.984;21.208;2024-01-15T01:51:49;98020.59;;;0.05;100.00
30949;BME280;17637;51.984;21.208;2024-01-15T01:54:21;97986.56;;;-0.22;100.00
30949;BME280;17637;51.984;21.208;2024-01-15T01:56:53;98006.69;;;-0.04;100.00
30949;BME280;17637;51.984;21.208;2024-01-15T01:59:27;97956.00;;;-0.23;100.00
30949;BME280;17637;51.984;21.208;2024-01-15T02:02:00;98001.56;;;0.09;100.00
30949;BME280;17637;51.984;21.208;2024-01-15T02:04:35;97965.19;;;-0.21;100.00
30949;BME280;17637;51.984;21.208;2024-01-15T02:07:08;97999.03;;;0.09;100.00
30949;BME280;17637;51.984;21.208;2024-01-15T02:09:42;97979.59;;;-0.20;100.00
30949;BME280;17637;51.984;21.208;2024-01-15T02:12:14;97975.13;;;-0.16;100.00
30949;BME280;17637;51.984;21.208;2024-01-15T02:14:46;97946.72;;;-0.24;100.00
30949;BME280;17637;51.984;21.208;2024-01-15T02:17:17;97978.81;;;0.06;100.00
30949;BME280;17637;51.984;21.208;2024-01-15T02:19:50;97981.75;;;-0.01;100.00
30949;BME280;17637;51.984;21.208;2024-01-15T02:22:22;97983.50;;;-0.01;100.00
30949;BME280;17637;51.984;21.208;2024-01-15T02:24:54;97964.59;;;-0.11;100.00
30949;BME280;17637;51.984;21.208;2024-01-15T02:27:26;97974.72;;;0.16;100.00
30949;BME280;17637;51.984;21.208;2024-01-15T02:29:57;97950.81;;;-0.22;100.00
30949;BME280;17637;51.984;21.208;2024-01-15T02:32:30;97944.69;;;-0.19;100.00
30949;BME280;17637;51.984;21.208;2024-01-15T02:35:02;97964.91;;;-0.16;100.00
30949;BME280;17637;51.984;21.208;2024-01-15T02:37:34;97922.81;;;-0.36;100.00
30949;BME280;17637;51.984;21.208;2024-01-15T02:40:06;97964.41;;;0.05;100.00
30949;BME280;17637;51.984;21.208;2024-01-15T02:42:38;97948.16;;;-0.07;100.00
30949;BME280;17637;51.984;21.208;2024-01-15T02:45:10;97933.25;;;-0.26;100.00
30949;BME280;17637;51.984;21.208;2024-01-15T02:47:42;97945.50;;;0.07;100.00
30949;BME280;17637;51.984;21.208;2024-01-15T02:50:14;97947.03;;;0.10;100.00
30949;BME280;17637;51.984;21.208;2024-01-15T02:52:46;97940.69;;;-0.10;100.00
30949;BME280;17637;51.984;21.208;2024-01-15T02:55:18;97941.22;;;0.08;100.00
30949;BME280;17637;51.984;21.208;2024-01-15T02:57:50;97935.28;;;0.07;100.00
30949;BME280;17637;51.984;21.208;2024-01-15T03:00:23;97925.16;;;0.06;100.00
30949;BME280;17637;51.984;21.208;2024-01-15T03:02:55;97918.75;;;0.00;100.00
30949;BME280;17637;51.984;21.208;2024-01-15T03:05:27;97903.72;;;-0.05;100.00
30949;BME280;17637;51.984;21.208;2024-01-15T03:07:59;97907.59;;;0.01;100.00
30949;BME280;17637;51.984;21.208;2024-01-15T03:10:31;97897.09;;;-0.07;100.00
30949;BME280;17637;51.984;21.208;2024-01-15T03:13:03;97908.72;;;0.10;100.00
30949;BME280;17637;51.984;21.208;2024-01-15T03:15:35;97898.81;;;-0.08;100.00
30949;BME280;17637;51.984;21.208;2024-01-15T03:18:07;97902.97;;;0.19;100.00
30949;BME280;17637;51.984;21.208;2024-01-15T03:20:39;97895.75;;;0.13;100.00
30949;BME280;17637;51.984;21.208;2024-01-15T03:23:11;97886.34;;;0.01;100.00
30949;BME280;17637;51.984;21.208;2024-01-15T03:25:43;97879.75;;;-0.28;100.00
30949;BME280;17637;51.984;21.208;2024-01-15T03:28:15;97851.03;;;-0.31;100.00
30949;BME280;17637;51.984;21.208;2024-01-15T03:30:47;97860.00;;;-0.13;100.00
30949;BME280;17637;51.984;21.208;2024-01-15T03:33:19;97885.13;;;0.06;100.00
30949;BME280;17637;51.984;21.208;2024-01-15T03:35:51;97876.25;;;-0.01;100.00
30949;BME280;17637;51.984;21.208;2024-01-15T03:38:23;97864.19;;;-0.12;100.00
30949;BME280;17637;51.984;21.208;2024-01-15T03:40:55;97884.09;;;0.09;100.00
30949;BME280;17637;51.984;21.208;2024-01-15T03:43:27;97857.53;;;-0.02;100.00
30949;BME280;17637;51.984;21.208;2024-01-15T03:45:59;97872.56;;;0.03;100.00
30949;BME280;17637;51.984;21.208;2024-01-15T03:48:31;97860.94;;;-0.14;100.00
30949;BME280;17637;51.984;21.208;2024-01-15T03:51:04;97822.47;;;-0.37;100.00
30949;BME280;17637;51.984;21.208;2024-01-15T03:53:38;97856.88;;;-0.17;100.00
30949;BME280;17637;51.984;21.208;2024-01-15T03:56:10;97848.88;;;-0.12;100.00
30949;BME280;17637;51.984;21.208;2024-01-15T03:58:42;97821.34;;;-0.32;100.00
30949;BME280;17637;51.984;21.208;2024-01-15T04:01:14;97843.88;;;-0.13;100.00
30949;BME280;17637;51.984;21.208;2024-01-15T04:03:46;97815.00;;;-0.27;100.00
30949;BME280;17637;51.984;21.208;2024-01-15T04:06:18;97819.69;;;-0.21;100.00
30949;BME280;17637;51.984;21.208;2024-01-15T04:08:50;97823.56;;;-0.15;100.00
30949;BME280;17637;51.984;21.208;2024-01-15T04:11:22;97798.44;;;-0.21;100.00
30949;BME280;17637;51.984;21.208;2024-01-15T04:13:55;97800.22;;;-0.35;100.00
30949;BME280;17637;51.984;21.208;2024-01-15T04:16:26;97828.75;;;-0.04;100.00
30949;BME280;17637;51.984;21.208;2024-01-15T04:18:58;97827.03;;;-0.16;100.00
30949;BME280;17637;51.984;21.208;2024-01-15T04:21:30;97814.78;;;-0.11;100.00
30949;BME280;17637;51.984;21.208;2024-01-15T04:24:03;97819.78;;;-0.09;100.00
30949;BME280;17637;51.984;21.208;2024-01-15T04:26:35;97811.91;;;-0.06;100.00
30949;BME280;17637;51.984;21.208;2024-01-15T04:29:07;97754.28;;;-0.35;100.00
30949;BME280;17637;51.984;21.208;2024-01-15T04:31:39;97758.06;;;-0.40;100.00
30949;BME280;17637;51.984;21.208;2024-01-15T04:34:11;97773.56;;;-0.30;100.00
30949;BME280;17637;51.984;21.208;2024-01-15T04:36:43;97801.69;;;-0.06;100.00
30949;BME280;17637;51.984;21.208;2024-01-15T04:39:15;97763.97;;;-0.27;100.00
30949;BME280;17637;51.984;21.208;2024-01-15T04:41:47;97780.34;;;-0.05;100.00
30949;BME280;17637;51.984;21.208;2024-01-15T04:44:19;97759.75;;;-0.15;100.00
30949;BME280;17637;51.984;21.208;2024-01-15T04:46:51;97770.66;;;-0.13;100.00
30949;BME280;17637;51.984;21.208;2024-01-15T04:49:23;97780.44;;;-0.07;100.00
30949;BME280;17637;51.984;21.208;2024-01-15T04:51:58;97766.41;;;-0.25;100.00
30949;BME280;17637;51.984;21.208;2024-01-15T04:54:30;97740.16;;;-0.27;100.00
30949;BME280;17637;51.984;21.208;2024-01-15T04:57:03;97758.50;;;-0.09;100.00
30949;BME280;17637;51.984;21.208;2024-01-15T04:59:35;97769.75;;;-0.25;100.00
30949;BME280;17637;51.984;21.208;2024-01-15T05:02:07;97759.22;;;-0.07;100.00
30949;BME280;17637;51.984;21.208;2024-01-15T05:04:39;97722.13;;;-0.37;100.00
30949;BME280;17637;51.984;21.208;2024-01-15T05:07:11;97723.84;;;-0.38;100.00
30949;BME280;17637;51.984;21.208;2024-01-15T05:09:43;97742.28;;;-0.21;100.00
30949;BME280;17637;51.984;21.208;2024-01-15T05:12:15;97754.91;;;-0.07;100.00
30949;BME280;17637;51.984;21.208;2024-01-15T05:14:47;97727.63;;;-0.30;100.00
30949;BME280;17637;51.984;21.208;2024-01-15T05:17:19;97762.78;;;-0.10;100.00
30949;BME280;17637;51.984;21.208;2024-01-15T05:19:51;97755.81;;;-0.08;100.00
30949;BME280;17637;51.984;21.208;2024-01-15T05:22:23;97751.69;;;-0.22;100.00
30949;BME280;17637;51.984;21.208;2024-01-15T05:24:57;97729.69;;;-0.36;100.00
30949;BME280;17637;51.984;21.208;2024-01-15T05:27:29;97759.09;;;-0.06;100.00
30949;BME280;17637;51.984;21.208;2024-01-15T05:30:01;97731.69;;;-0.28;100.00
30949;BME280;17637;51.984;21.208;2024-01-15T05:32:33;97727.66;;;-0.43;100.00
30949;BME280;17637;51.984;21.208;2024-01-15T05:35:05;97737.19;;;-0.21;100.00
30949;BME280;17637;51.984;21.208;2024-01-15T05:37:38;97735.78;;;-0.25;100.00
30949;BME280;17637;51.984;21.208;2024-01-15T05:40:11;97748.63;;;-0.14;100.00
30949;BME280;17637;51.984;21.208;2024-01-15T05:42:43;97727.28;;;-0.26;100.00
30949;BME280;17637;51.984;21.208;2024-01-15T05:45:15;97758.50;;;-0.09;100.00
30949;BME280;17637;51.984;21.208;2024-01-15T05:47:47;97751.75;;;-0.10;100.00
30949;BME280;17637;51.984;21.208;2024-01-15T05:50:20;97725.44;;;-0.24;100.00
30949;BME280;17637;51.984;21.208;2024-01-15T05:52:52;97755.56;;;-0.16;100.00
30949;BME280;17637;51.984;21.208;2024-01-15T05:55:24;97741.53;;;-0.10;100.00
30949;BME280;17637;51.984;21.208;2024-01-15T05:57:56;97726.09;;;-0.33;100.00
30949;BME280;17637;51.984;21.208;2024-01-15T06:00:28;97741.25;;;-0.19;100.00
30949;BME280;17637;51.984;21.208;2024-01-15T06:03:00;97719.75;;;-0.27;100.00
30949;BME280;17637;51.984;21.208;2024-01-15T06:05:32;97715.97;;;-0.22;100.00
30949;BME280;17637;51.984;21.208;2024-01-15T06:08:04;97733.00;;;-0.22;100.00
30949;BME280;17637;51.984;21.208;2024-01-15T06:10:35;97680.38;;;-0.49;100.00
30949;BME280;17637;51.984;21.208;2024-01-15T06:13:07;97740.63;;;-0.09;100.00
30949;BME280;17637;51.984;21.208;2024-01-15T06:15:39;97745.13;;;-0.13;100.00
30949;BME280;17637;51.984;21.208;2024-01-15T06:18:11;97718.81;;;-0.26;100.00
30949;BME280;17637;51.984;21.208;2024-01-15T06:20:43;97742.88;;;-0.05;100.00
30949;BME280;17637;51.984;21.208;2024-01-15T06:23:15;97708.31;;;-0.22;100.00
30949;BME280;17637;51.984;21.208;2024-01-15T06:25:51;97715.13;;;-0.22;100.00
30949;BME280;17637;51.984;21.208;2024-01-15T06:28:23;97726.13;;;-0.09;100.00
30949;BME280;17637;51.984;21.208;2024-01-15T06:30:55;97733.56;;;-0.06;100.00
30949;BME280;17637;51.984;21.208;2024-01-15T06:33:27;97684.88;;;-0.40;100.00
30949;BME280;17637;51.984;21.208;2024-01-15T06:35:59;97729.97;;;-0.03;100.00
30949;BME280;17637;51.984;21.208;2024-01-15T06:38:31;97731.50;;;-0.01;100.00
30949;BME280;17637;51.984;21.208;2024-01-15T06:41:03;97676.69;;;-0.32;100.00
30949;BME280;17637;51.984;21.208;2024-01-15T06:43:35;97728.16;;;-0.01;100.00
30949;BME280;17637;51.984;21.208;2024-01-15T06:46:07;97715.66;;;0.07;100.00
30949;BME280;17637;51.984;21.208;2024-01-15T06:48:39;97717.97;;;-0.14;100.00
30949;BME280;17637;51.984;21.208;2024-01-15T06:51:11;97714.97;;;-0.08;100.00
30949;BME280;17637;51.984;21.208;2024-01-15T06:53:43;97706.50;;;-0.08;100.00
30949;BME280;17637;51.984;21.208;2024-01-15T06:56:15;97712.00;;;-0.02;100.00
30949;BME280;17637;51.984;21.208;2024-01-15T06:58:47;97708.25;;;-0.09;100.00
30949;BME280;17637;51.984;21.208;2024-01-15T07:01:19;97708.16;;;-0.07;100.00
30949;BME280;17637;51.984;21.208;2024-01-15T07:03:51;97726.69;;;0.08;100.00
30949;BME280;17637;51.984;21.208;2024-01-15T07:06:24;97699.16;;;-0.13;100.00
30949;BME280;17637;51.984;21.208;2024-01-15T07:08:56;97718.91;;;0.09;100.00
30949;BME280;17637;51.984;21.208;2024-01-15T07:11:28;97699.47;;;-0.05;100.00
30949;BME280;17637;51.984;21.208;2024-01-15T07:14:00;97712.00;;;-0.02;100.00
30949;BME280;17637;51.984;21.208;2024-01-15T07:16:32;97692.22;;;-0.11;100.00
30949;BME280;17637;51.984;21.208;2024-01-15T07:19:09;97709.00;;;0.05;100.00
30949;BME280;17637;51.984;21.208;2024-01-15T07:21:41;97698.09;;;0.03;100.00
30949;BME280;17637;51.984;21.208;2024-01-15T07:24:15;97678.38;;;-0.20;100.00
30949;BME280;17637;51.984;21.208;2024-01-15T07:26:47;97684.75;;;-0.01;100.00
30949;BME280;17637;51.984;21.208;2024-01-15T07:29:19;97695.44;;;-0.20;100.00
30949;BME280;17637;51.984;21.208;2024-01-15T07:31:51;97672.16;;;-0.28;100.00
30949;BME280;17637;51.984;21.208;2024-01-15T07:34:23;97683.47;;;-0.20;100.00
30949;BME280;17637;51.984;21.208;2024-01-15T07:36:57;97708.22;;;0.04;100.00
30949;BME280;17637;51.984;21.208;2024-01-15T07:39:29;97670.16;;;-0.12;100.00
30949;BME280;17637;51.984;21.208;2024-01-15T07:42:02;97678.81;;;-0.02;100.00
30949;BME280;17637;51.984;21.208;2024-01-15T07:44:34;97707.66;;;0.12;100.00
30949;BME280;17637;51.984;21.208;2024-01-15T07:47:06;97612.59;;;-0.16;100.00
30949;BME280;17637;51.984;21.208;2024-01-15T07:49:40;97700.44;;;0.06;100.00
30949;BME280;17637;51.984;21.208;2024-01-15T07:52:12;97710.47;;;0.20;100.00
30949;BME280;17637;51.984;21.208;2024-01-15T07:54:45;97676.19;;;-0.13;100.00
30949;BME280;17637;51.984;21.208;2024-01-15T07:57:17;97706.28;;;0.19;100.00
30949;BME280;17637;51.984;21.208;2024-01-15T07:59:49;97680.97;;;-0.08;100.00
30949;BME280;17637;51.984;21.208;2024-01-15T08:02:21;97702.69;;;0.10;100.00
30949;BME280;17637;51.984;21.208;2024-01-15T08:04:53;97699.94;;;0.01;100.00
30949;BME280;17637;51.984;21.208;2024-01-15T08:07:26;97711.50;;;0.18;100.00
30949;BME280;17637;51.984;21.208;2024-01-15T08:09:58;97675.16;;;0.14;100.00
30949;BME280;17637;51.984;21.208;2024-01-15T08:12:30;97700.44;;;0.65;100.00
30949;BME280;17637;51.984;21.208;2024-01-15T08:15:02;97685.94;;;0.42;100.00
30949;BME280;17637;51.984;21.208;2024-01-15T08:17:34;97693.91;;;0.26;100.00
30949;BME280;17637;51.984;21.208;2024-01-15T08:20:06;97714.84;;;0.42;100.00
30949;BME280;17637;51.984;21.208;2024-01-15T08:22:39;97644.44;;;-0.09;100.00
30949;BME280;17637;51.984;21.208;2024-01-15T08:25:11;97695.16;;;0.20;100.00
30949;BME280;17637;51.984;21.208;2024-01-15T08:27:43;97668.94;;;-0.06;100.00
30949;BME280;17637;51.984;21.208;2024-01-15T08:30:15;97712.38;;;0.29;100.00
30949;BME280;17637;51.984;21.208;2024-01-15T08:32:47;97729.06;;;0.22;100.00
30949;BME280;17637;51.984;21.208;2024-01-15T08:35:19;97682.28;;;-0.03;100.00
30949;BME280;17637;51.984;21.208;2024-01-15T08:37:54;97694.94;;;0.23;100.00
30949;BME280;17637;51.984;21.208;2024-01-15T08:40:26;97716.31;;;0.22;100.00
30949;BME280;17637;51.984;21.208;2024-01-15T08:42:58;97670.72;;;0.05;100.00
30949;BME280;17637;51.984;21.208;2024-01-15T08:45:30;97717.41;;;0.07;100.00
30949;BME280;17637;51.984;21.208;2024-01-15T08:48:03;97700.94;;;0.11;100.00
30949;BME280;17637;51.984;21.208;2024-01-15T08:50:35;97684.44;;;-0.09;100.00
30949;BME280;17637;51.984;21.208;2024-01-15T08:53:07;97716.00;;;0.14;100.00
30949;BME280;17637;51.984;21.208;2024-01-15T08:55:39;97724.66;;;0.24;100.00
30949;BME280;17637;51.984;21.208;2024-01-15T08:58:11;97718.84;;;0.22;100.00
30949;BME280;17637;51.984;21.208;2024-01-15T09:00:43;97710.03;;;0.26;100.00
30949;BME280;17637;51.984;21.208;2024-01-15T09:03:15;97706.25;;;0.08;100.00
30949;BME280;17637;51.984;21.208;2024-01-15T09:05:48;97720.50;;;0.23;100.00
30949;BME280;17637;51.984;21.208;2024-01-15T09:08:22;97720.81;;;0.19;100.00
30949;BME280;17637;51.984;21.208;2024-01-15T09:10:54;97726.56;;;0.09;100.00
30949;BME280;17637;51.984;21.208;2024-01-15T09:13:26;97707.31;;;0.16;100.00
30949;BME280;17637;51.984;21.208;2024-01-15T09:15:58;97709.13;;;0.03;100.00
30949;BME280;17637;51.984;21.208;2024-01-15T09:18:30;97757.53;;;0.53;100.00
30949;BME280;17637;51.984;21.208;2024-01-15T09:21:03;97740.94;;;0.59;100.00
30949;BME280;17637;51.984;21.208;2024-01-15T09:23:37;97743.06;;;0.65;100.00
30949;BME280;17637;51.984;21.208;2024-01-15T09:26:09;97738.09;;;0.39;100.00
30949;BME280;17637;51.984;21.208;2024-01-15T09:28:41;97653.91;;;0.13;100.00
30949;BME280;17637;51.984;21.208;2024-01-15T09:31:13;97707.47;;;0.51;100.00
30949;BME280;17637;51.984;21.208;2024-01-15T09:33:45;97755.00;;;1.00;100.00
30949;BME280;17637;51.984;21.208;2024-01-15T09:36:18;97700.78;;;0.72;100.00
30949;BME280;17637;51.984;21.208;2024-01-15T09:38:50;97706.97;;;1.04;100.00
30949;BME280;17637;51.984;21.208;2024-01-15T09:41:22;97702.06;;;0.78;100.00
30949;BME280;17637;51.984;21.208;2024-01-15T09:43:54;97708.50;;;1.06;100.00
30949;BME280;17637;51.984;21.208;2024-01-15T09:46:26;97700.84;;;1.18;100.00
30949;BME280;17637;51.984;21.208;2024-01-15T09:48:58;97678.34;;;0.87;100.00
30949;BME280;17637;51.984;21.208;2024-01-15T09:51:31;97692.00;;;0.99;100.00
30949;BME280;17637;51.984;21.208;2024-01-15T09:54:04;97683.16;;;1.03;100.00
30949;BME280;17637;51.984;21.208;2024-01-15T09:56:36;97684.91;;;1.14;100.00
30949;BME280;17637;51.984;21.208;2024-01-15T09:59:08;97689.91;;;1.27;100.00
30949;BME280;17637;51.984;21.208;2024-01-15T10:01:40;97657.91;;;0.98;100.00
30949;BME280;17637;51.984;21.208;2024-01-15T10:04:13;97689.44;;;1.33;100.00
30949;BME280;17637;51.984;21.208;2024-01-15T10:06:46;97671.44;;;1.23;100.00
30949;BME280;17637;51.984;21.208;2024-01-15T10:09:19;97666.31;;;1.12;100.00
30949;BME280;17637;51.984;21.208;2024-01-15T10:11:51;97697.94;;;1.34;100.00
30949;BME280;17637;51.984;21.208;2024-01-15T10:14:24;97676.63;;;1.22;100.00
30949;BME280;17637;51.984;21.208;2024-01-15T10:16:56;97686.41;;;1.39;99.90
30949;BME280;17637;51.984;21.208;2024-01-15T10:19:28;97707.13;;;1.47;96.87
30949;BME280;17637;51.984;21.208;2024-01-15T10:22:02;97665.59;;;1.21;99.64
30949;BME280;17637;51.984;21.208;2024-01-15T10:24:36;97706.31;;;1.47;99.86
30949;BME280;17637;51.984;21.208;2024-01-15T10:27:10;97675.59;;;1.36;99.79
30949;BME280;17637;51.984;21.208;2024-01-15T10:29:42;97670.59;;;1.34;99.25
30949;BME280;17637;51.984;21.208;2024-01-15T10:32:15;97692.69;;;1.35;100.00
30949;BME280;17637;51.984;21.208;2024-01-15T10:34:47;97694.19;;;1.04;100.00
30949;BME280;17637;51.984;21.208;2024-01-15T10:37:19;97682.13;;;1.06;100.00
30949;BME280;17637;51.984;21.208;2024-01-15T10:39:52;97697.00;;;1.12;100.00
30949;BME280;17637;51.984;21.208;2024-01-15T10:42:24;97705.94;;;1.06;100.00
30949;BME280;17637;51.984;21.208;2024-01-15T10:44:56;97695.25;;;1.24;100.00
30949;BME280;17637;51.984;21.208;2024-01-15T10:47:28;97701.19;;;1.24;100.00
30949;BME280;17637;51.984;21.208;2024-01-15T10:50:01;97662.13;;;1.11;100.00
30949;BME280;17637;51.984;21.208;2024-01-15T10:52:38;97704.91;;;1.31;100.00
30949;BME280;17637;51.984;21.208;2024-01-15T10:55:11;97692.00;;;1.33;100.00
30949;BME280;17637;51.984;21.208;2024-01-15T10:57:50;97655.94;;;0.91;100.00
30949;BME280;17637;51.984;21.208;2024-01-15T11:00:22;97707.34;;;1.44;100.00
30949;BME280;17637;51.984;21.208;2024-01-15T11:02:54;97704.44;;;1.49;100.00
30949;BME280;17637;51.984;21.208;2024-01-15T11:05:27;97699.44;;;1.36;100.00
30949;BME280;17637;51.984;21.208;2024-01-15T11:07:59;97692.69;;;1.24;100.00
30949;BME280;17637;51.984;21.208;2024-01-15T11:10:51;97704.66;;;1.57;100.00
30949;BME280;17637;51.984;21.208;2024-01-15T11:16:10;97676.22;;;1.83;100.00
30949;BME280;17637;51.984;21.208;2024-01-15T11:19:02;97697.22;;;1.54;100.00
30949;BME280;17637;51.984;21.208;2024-01-15T11:21:34;97693.38;;;1.48;100.00
30949;BME280;17637;51.984;21.208;2024-01-15T11:24:34;97695.78;;;1.73;100.00
30949;BME280;17637;51.984;21.208;2024-01-15T11:27:08;97671.25;;;1.59;100.00
30949;BME280;17637;51.984;21.208;2024-01-15T11:29:40;97675.38;;;1.50;100.00
30949;BME280;17637;51.984;21.208;2024-01-15T11:32:12;97665.81;;;1.41;100.00
30949;BME280;17637;51.984;21.208;2024-01-15T11:34:52;97685.94;;;1.34;100.00
30949;BME280;17637;51.984;21.208;2024-01-15T11:37:26;97691.06;;;1.57;100.00
30949;BME280;17637;51.984;21.208;2024-01-15T11:40:02;97676.88;;;1.41;100.00
30949;BME280;17637;51.984;21.208;2024-01-15T11:42:42;97648.41;;;1.23;100.00
30949;BME280;17637;51.984;21.208;2024-01-15T11:45:18;97676.50;;;1.46;100.00
30949;BME280;17637;51.984;21.208;2024-01-15T11:50:48;97677.41;;;1.68;100.00
30949;BME280;17637;51.984;21.208;2024-01-15T11:53:32;97676.16;;;1.51;100.00
30949;BME280;17637;51.984;21.208;2024-01-15T11:56:16;97678.00;;;1.60;100.00
30949;BME280;17637;51.984;21.208;2024-01-15T11:58:49;97672.44;;;1.55;100.00
30949;BME280;17637;51.984;21.208;2024-01-15T12:01:23;97663.97;;;1.20;100.00
30949;BME280;17637;51.984;21.208;2024-01-15T12:03:55;97659.44;;;1.35;100.00
30949;BME280;17637;51.984;21.208;2024-01-15T12:06:27;97645.03;;;0.89;100.00
30949;BME280;17637;51.984;21.208;2024-01-15T12:09:09;97670.38;;;1.03;100.00
30949;BME280;17637;51.984;21.208;2024-01-15T12:11:46;97669.06;;;1.09;100.00
30949;BME280;17637;51.984;21.208;2024-01-15T12:14:23;97665.84;;;1.07;100.00
30949;BME280;17637;51.984;21.208;2024-01-15T12:16:55;97663.25;;;0.84;100.00
30949;BME280;17637;51.984;21.208;2024-01-15T12:19:27;97674.56;;;0.93;100.00
30949;BME280;17637;51.984;21.208;2024-01-15T12:21:59;97671.09;;;1.05;100.00
30949;BME280;17637;51.984;21.208;2024-01-15T12:24:31;97676.50;;;0.89;100.00
30949;BME280;17637;51.984;21.208;2024-01-15T12:27:03;97678.41;;;1.21;100.00
30949;BME280;17637;51.984;21.208;2024-01-15T12:29:35;97679.34;;;0.97;100.00
30949;BME280;17637;51.984;21.208;2024-01-15T12:32:07;97657.44;;;0.93;100.00
30949;BME280;17637;51.984;21.208;2024-01-15T12:34:39;97637.22;;;0.68;100.00
30949;BME280;17637;51.984;21.208;2024-01-15T12:37:11;97668.13;;;0.87;100.00
30949;BME280;17637;51.984;21.208;2024-01-15T12:39:43;97664.78;;;0.87;100.00
30949;BME280;17637;51.984;21.208;2024-01-15T12:42:16;97664.91;;;0.85;100.00
30949;BME280;17637;51.984;21.208;2024-01-15T12:44:48;97659.56;;;1.00;100.00
30949;BME280;17637;51.984;21.208;2024-01-15T12:47:20;97644.19;;;0.77;100.00
30949;BME280;17637;51.984;21.208;2024-01-15T12:49:52;97669.97;;;0.62;100.00
30949;BME280;17637;51.984;21.208;2024-01-15T12:52:40;97630.22;;;0.58;100.00
30949;BME280;17637;51.984;21.208;2024-01-15T12:55:13;97658.59;;;0.78;100.00
30949;BME280;17637;51.984;21.208;2024-01-15T12:57:47;97673.44;;;0.50;100.00
30949;BME280;17637;51.984;21.208;2024-01-15T13:00:19;97642.78;;;0.61;100.00
30949;BME280;17637;51.984;21.208;2024-01-15T13:02:52;97625.03;;;0.24;100.00
30949;BME280;17637;51.984;21.208;2024-01-15T13:05:25;97663.00;;;0.64;100.00
30949;BME280;17637;51.984;21.208;2024-01-15T13:07:59;97676.78;;;0.51;100.00
30949;BME280;17637;51.984;21.208;2024-01-15T13:10:31;97677.59;;;0.51;100.00
30949;BME280;17637;51.984;21.208;2024-01-15T13:13:06;97648.94;;;-0.12;100.00
30949;BME280;17637;51.984;21.208;2024-01-15T13:15:38;97684.09;;;0.08;100.00
30949;BME280;17637;51.984;21.208;2024-01-15T13:18:10;97647.69;;;-0.07;100.00